<?xml version="1.0" encoding="UTF-8" standalone="no" ?>
  <gpx version="1.0" creator="Loctome.com">
  <metadata>
  <link href="https://play.google.com/store/apps/details?id=com.loctome.app.loctome">
      <text>Loctome Live Track GPS</text>
  </link>
  <desc>File created by Loctome Android Client Oreo Edition</desc>
  <time>2019-05-26T12:45:14Z</time>
  </metadata>
  <trk>
    <name>2019-05-26T12:45:14Z</name>
    <trkseg>
      <trkpt lat="39.2186949" lon="-6.12575246"><ele>1012</ele><speed>0.22</speed><time>2019-05-26T12:45:14Z</time><pdop>4.5509996</pdop><geoidheight>0.00</geoidheight><course>14.9</course><type>1</type></trkpt>
      <trkpt lat="39.21876223" lon="-6.12569171"><ele>1013</ele><speed>2.47</speed><time>2019-05-26T12:45:36Z</time><pdop>4.5509996</pdop><geoidheight>0.00</geoidheight><course>358.7</course><type>1</type></trkpt>
      <trkpt lat="39.21884705" lon="-6.1257079"><ele>1009</ele><speed>5.43</speed><time>2019-05-26T12:45:39Z</time><pdop>4.5509996</pdop><geoidheight>0.00</geoidheight><course>26.4</course><type>1</type></trkpt>
      <trkpt lat="39.21894565" lon="-6.12564107"><ele>1010</ele><speed>4.17</speed><time>2019-05-26T12:45:41Z</time><pdop>4.5509996</pdop><geoidheight>0.00</geoidheight><course>22.2</course><type>1</type></trkpt>
      <trkpt lat="39.21902421" lon="-6.12562376"><ele>1010</ele><speed>4.29</speed><time>2019-05-26T12:45:43Z</time><pdop>4.5509996</pdop><geoidheight>0.00</geoidheight><course>7.0</course><type>1</type></trkpt>
      <trkpt lat="39.21910339" lon="-6.12559687"><ele>1013</ele><speed>3.13</speed><time>2019-05-26T12:45:45Z</time><pdop>4.5509996</pdop><geoidheight>0.00</geoidheight><course>22.7</course><type>1</type></trkpt>
      <trkpt lat="39.21917063" lon="-6.12554141"><ele>1021</ele><speed>0.60</speed><time>2019-05-26T12:45:52Z</time><pdop>4.5509996</pdop><geoidheight>0.00</geoidheight><course>57.1</course><type>1</type></trkpt>
      <trkpt lat="39.21924382" lon="-6.12544744"><ele>1019</ele><speed>7.31</speed><time>2019-05-26T12:45:56Z</time><pdop>4.5509996</pdop><geoidheight>0.00</geoidheight><course>63.4</course><type>1</type></trkpt>
      <trkpt lat="39.21927792" lon="-6.12527496"><ele>1019</ele><speed>7.47</speed><time>2019-05-26T12:45:58Z</time><pdop>4.5509996</pdop><geoidheight>0.00</geoidheight><course>83.7</course><type>1</type></trkpt>
      <trkpt lat="39.21927427" lon="-6.12512607"><ele>1021</ele><speed>6.38</speed><time>2019-05-26T12:46:00Z</time><pdop>6.068</pdop><geoidheight>0.00</geoidheight><course>94.0</course><type>1</type></trkpt>
      <trkpt lat="39.2192727" lon="-6.12492731"><ele>1021</ele><speed>10.90</speed><time>2019-05-26T12:46:02Z</time><pdop>4.5509996</pdop><geoidheight>0.00</geoidheight><course>93.4</course><type>1</type></trkpt>
      <trkpt lat="39.21927378" lon="-6.12480375"><ele>1019</ele><speed>11.47</speed><time>2019-05-26T12:46:03Z</time><pdop>4.5509996</pdop><geoidheight>0.00</geoidheight><course>92.8</course><type>1</type></trkpt>
      <trkpt lat="39.21927546" lon="-6.12468052"><ele>1020</ele><speed>9.43</speed><time>2019-05-26T12:46:04Z</time><pdop>4.5509996</pdop><geoidheight>0.00</geoidheight><course>87.2</course><type>1</type></trkpt>
      <trkpt lat="39.21927494" lon="-6.12458047"><ele>1022</ele><speed>6.79</speed><time>2019-05-26T12:46:05Z</time><pdop>4.5509996</pdop><geoidheight>0.00</geoidheight><course>82.1</course><type>1</type></trkpt>
      <trkpt lat="39.21928652" lon="-6.12443294"><ele>1023</ele><speed>6.64</speed><time>2019-05-26T12:46:07Z</time><pdop>4.5509996</pdop><geoidheight>0.00</geoidheight><course>84.6</course><type>1</type></trkpt>
      <trkpt lat="39.21926844" lon="-6.12427224"><ele>1022</ele><speed>7.46</speed><time>2019-05-26T12:46:09Z</time><pdop>6.068</pdop><geoidheight>0.00</geoidheight><course>98.1</course><type>1</type></trkpt>
      <trkpt lat="39.21925858" lon="-6.12412113"><ele>1020</ele><speed>7.00</speed><time>2019-05-26T12:46:11Z</time><pdop>6.068</pdop><geoidheight>0.00</geoidheight><course>91.0</course><type>1</type></trkpt>
      <trkpt lat="39.21930256" lon="-6.12393526"><ele>1021</ele><speed>9.54</speed><time>2019-05-26T12:46:13Z</time><pdop>6.068</pdop><geoidheight>0.00</geoidheight><course>65.9</course><type>1</type></trkpt>
      <trkpt lat="39.21937689" lon="-6.12375753"><ele>1028</ele><speed>7.57</speed><time>2019-05-26T12:46:15Z</time><pdop>4.5509996</pdop><geoidheight>0.00</geoidheight><course>69.4</course><type>1</type></trkpt>
      <trkpt lat="39.21939154" lon="-6.12359594"><ele>1032</ele><speed>6.54</speed><time>2019-05-26T12:46:17Z</time><pdop>4.5509996</pdop><geoidheight>0.00</geoidheight><course>77.7</course><type>1</type></trkpt>
      <trkpt lat="39.21942144" lon="-6.12345528"><ele>1034</ele><speed>6.49</speed><time>2019-05-26T12:46:19Z</time><pdop>4.5509996</pdop><geoidheight>0.00</geoidheight><course>73.6</course><type>1</type></trkpt>
      <trkpt lat="39.21946128" lon="-6.12328472"><ele>1034</ele><speed>8.04</speed><time>2019-05-26T12:46:21Z</time><pdop>4.5509996</pdop><geoidheight>0.00</geoidheight><course>81.9</course><type>1</type></trkpt>
      <trkpt lat="39.21946313" lon="-6.1231903"><ele>1036</ele><speed>7.53</speed><time>2019-05-26T12:46:22Z</time><pdop>4.5509996</pdop><geoidheight>0.00</geoidheight><course>87.1</course><type>1</type></trkpt>
      <trkpt lat="39.21948183" lon="-6.1230382"><ele>1037</ele><speed>6.54</speed><time>2019-05-26T12:46:24Z</time><pdop>4.5509996</pdop><geoidheight>0.00</geoidheight><course>67.3</course><type>1</type></trkpt>
      <trkpt lat="39.21953961" lon="-6.12289092"><ele>1040</ele><speed>7.32</speed><time>2019-05-26T12:46:26Z</time><pdop>4.5509996</pdop><geoidheight>0.00</geoidheight><course>63.3</course><type>1</type></trkpt>
      <trkpt lat="39.21956383" lon="-6.1228027"><ele>1041</ele><speed>7.83</speed><time>2019-05-26T12:46:27Z</time><pdop>4.5509996</pdop><geoidheight>0.00</geoidheight><course>74.0</course><type>1</type></trkpt>
      <trkpt lat="39.21956606" lon="-6.12263231"><ele>1048</ele><speed>7.63</speed><time>2019-05-26T12:46:29Z</time><pdop>4.5509996</pdop><geoidheight>0.00</geoidheight><course>99.5</course><type>1</type></trkpt>
      <trkpt lat="39.2195362" lon="-6.12246872"><ele>1054</ele><speed>7.18</speed><time>2019-05-26T12:46:31Z</time><pdop>4.5509996</pdop><geoidheight>0.00</geoidheight><course>95.0</course><type>1</type></trkpt>
      <trkpt lat="39.21951342" lon="-6.12227044"><ele>1060</ele><speed>10.06</speed><time>2019-05-26T12:46:33Z</time><pdop>4.5509996</pdop><geoidheight>0.00</geoidheight><course>101.8</course><type>1</type></trkpt>
      <trkpt lat="39.2194841" lon="-6.12214654"><ele>1064</ele><speed>11.56</speed><time>2019-05-26T12:46:34Z</time><pdop>4.5509996</pdop><geoidheight>0.00</geoidheight><course>110.3</course><type>1</type></trkpt>
      <trkpt lat="39.21943913" lon="-6.12202911"><ele>1066</ele><speed>11.52</speed><time>2019-05-26T12:46:35Z</time><pdop>4.5509996</pdop><geoidheight>0.00</geoidheight><course>118.5</course><type>1</type></trkpt>
      <trkpt lat="39.2193743" lon="-6.12191782"><ele>1067</ele><speed>11.67</speed><time>2019-05-26T12:46:36Z</time><pdop>4.5509996</pdop><geoidheight>0.00</geoidheight><course>130.8</course><type>1</type></trkpt>
      <trkpt lat="39.21929827" lon="-6.12181512"><ele>1068</ele><speed>12.90</speed><time>2019-05-26T12:46:37Z</time><pdop>4.5509996</pdop><geoidheight>0.00</geoidheight><course>135.8</course><type>1</type></trkpt>
      <trkpt lat="39.21921167" lon="-6.12169929"><ele>1068</ele><speed>14.42</speed><time>2019-05-26T12:46:38Z</time><pdop>4.5509996</pdop><geoidheight>0.00</geoidheight><course>135.4</course><type>1</type></trkpt>
      <trkpt lat="39.21912424" lon="-6.12158446"><ele>1068</ele><speed>14.39</speed><time>2019-05-26T12:46:39Z</time><pdop>4.5509996</pdop><geoidheight>0.00</geoidheight><course>134.3</course><type>1</type></trkpt>
      <trkpt lat="39.21905246" lon="-6.12146938"><ele>1068</ele><speed>13.21</speed><time>2019-05-26T12:46:40Z</time><pdop>4.5509996</pdop><geoidheight>0.00</geoidheight><course>133.0</course><type>1</type></trkpt>
      <trkpt lat="39.21898398" lon="-6.12136128"><ele>1069</ele><speed>11.98</speed><time>2019-05-26T12:46:41Z</time><pdop>4.5509996</pdop><geoidheight>0.00</geoidheight><course>128.7</course><type>1</type></trkpt>
      <trkpt lat="39.21893054" lon="-6.12125783"><ele>1069</ele><speed>11.05</speed><time>2019-05-26T12:46:42Z</time><pdop>6.068</pdop><geoidheight>0.00</geoidheight><course>122.5</course><type>1</type></trkpt>
      <trkpt lat="39.21884057" lon="-6.12104365"><ele>1068</ele><speed>9.88</speed><time>2019-05-26T12:46:44Z</time><pdop>4.5509996</pdop><geoidheight>0.00</geoidheight><course>112.0</course><type>1</type></trkpt>
      <trkpt lat="39.21882203" lon="-6.12094339"><ele>1068</ele><speed>9.07</speed><time>2019-05-26T12:46:45Z</time><pdop>4.5509996</pdop><geoidheight>0.00</geoidheight><course>99.4</course><type>1</type></trkpt>
      <trkpt lat="39.21881871" lon="-6.12084089"><ele>1069</ele><speed>8.71</speed><time>2019-05-26T12:46:46Z</time><pdop>4.5509996</pdop><geoidheight>0.00</geoidheight><course>87.6</course><type>1</type></trkpt>
      <trkpt lat="39.21882249" lon="-6.12074119"><ele>1069</ele><speed>8.47</speed><time>2019-05-26T12:46:47Z</time><pdop>4.5509996</pdop><geoidheight>0.00</geoidheight><course>86.0</course><type>1</type></trkpt>
      <trkpt lat="39.2188149" lon="-6.12058121"><ele>1070</ele><speed>6.04</speed><time>2019-05-26T12:46:49Z</time><pdop>4.5509996</pdop><geoidheight>0.00</geoidheight><course>95.8</course><type>1</type></trkpt>
      <trkpt lat="39.21882515" lon="-6.12045098"><ele>1069</ele><speed>6.32</speed><time>2019-05-26T12:46:51Z</time><pdop>6.068</pdop><geoidheight>0.00</geoidheight><course>86.8</course><type>1</type></trkpt>
      <trkpt lat="39.21883303" lon="-6.12028067"><ele>1066</ele><speed>7.90</speed><time>2019-05-26T12:46:53Z</time><pdop>6.068</pdop><geoidheight>0.00</geoidheight><course>88.7</course><type>1</type></trkpt>
      <trkpt lat="39.2188306" lon="-6.12009969"><ele>1063</ele><speed>7.50</speed><time>2019-05-26T12:46:55Z</time><pdop>6.068</pdop><geoidheight>0.00</geoidheight><course>86.7</course><type>1</type></trkpt>
      <trkpt lat="39.21885294" lon="-6.11993439"><ele>1061</ele><speed>7.49</speed><time>2019-05-26T12:46:57Z</time><pdop>6.068</pdop><geoidheight>0.00</geoidheight><course>66.0</course><type>1</type></trkpt>
      <trkpt lat="39.21889573" lon="-6.11975222"><ele>1058</ele><speed>7.28</speed><time>2019-05-26T12:46:59Z</time><pdop>6.068</pdop><geoidheight>0.00</geoidheight><course>72.9</course><type>1</type></trkpt>
      <trkpt lat="39.21890494" lon="-6.11956222"><ele>1058</ele><speed>9.41</speed><time>2019-05-26T12:47:01Z</time><pdop>6.068</pdop><geoidheight>0.00</geoidheight><course>95.3</course><type>1</type></trkpt>
      <trkpt lat="39.21888401" lon="-6.11931677"><ele>1060</ele><speed>9.71</speed><time>2019-05-26T12:47:03Z</time><pdop>4.5509996</pdop><geoidheight>0.00</geoidheight><course>98.2</course><type>1</type></trkpt>
      <trkpt lat="39.21887623" lon="-6.11922008"><ele>1061</ele><speed>7.69</speed><time>2019-05-26T12:47:04Z</time><pdop>4.5509996</pdop><geoidheight>0.00</geoidheight><course>101.3</course><type>1</type></trkpt>
      <trkpt lat="39.21884618" lon="-6.11907884"><ele>1065</ele><speed>6.01</speed><time>2019-05-26T12:47:06Z</time><pdop>4.5509996</pdop><geoidheight>0.00</geoidheight><course>101.0</course><type>1</type></trkpt>
      <trkpt lat="39.21883426" lon="-6.11890138"><ele>1065</ele><speed>8.61</speed><time>2019-05-26T12:47:08Z</time><pdop>4.5509996</pdop><geoidheight>0.00</geoidheight><course>93.4</course><type>1</type></trkpt>
      <trkpt lat="39.21883836" lon="-6.11880242"><ele>1066</ele><speed>8.98</speed><time>2019-05-26T12:47:09Z</time><pdop>4.5509996</pdop><geoidheight>0.00</geoidheight><course>89.9</course><type>1</type></trkpt>
      <trkpt lat="39.21884548" lon="-6.11870889"><ele>1067</ele><speed>7.70</speed><time>2019-05-26T12:47:10Z</time><pdop>4.5509996</pdop><geoidheight>0.00</geoidheight><course>85.8</course><type>1</type></trkpt>
      <trkpt lat="39.21884769" lon="-6.11855367"><ele>1071</ele><speed>6.33</speed><time>2019-05-26T12:47:12Z</time><pdop>4.5509996</pdop><geoidheight>0.00</geoidheight><course>94.1</course><type>1</type></trkpt>
      <trkpt lat="39.21882754" lon="-6.11839988"><ele>1071</ele><speed>7.13</speed><time>2019-05-26T12:47:14Z</time><pdop>4.5509996</pdop><geoidheight>0.00</geoidheight><course>94.5</course><type>1</type></trkpt>
      <trkpt lat="39.21881862" lon="-6.11824202"><ele>1073</ele><speed>7.40</speed><time>2019-05-26T12:47:16Z</time><pdop>4.5509996</pdop><geoidheight>0.00</geoidheight><course>97.3</course><type>1</type></trkpt>
      <trkpt lat="39.21877035" lon="-6.11806709"><ele>1074</ele><speed>8.80</speed><time>2019-05-26T12:47:18Z</time><pdop>4.5509996</pdop><geoidheight>0.00</geoidheight><course>121.1</course><type>1</type></trkpt>
      <trkpt lat="39.218711" lon="-6.11798475"><ele>1074</ele><speed>9.32</speed><time>2019-05-26T12:47:19Z</time><pdop>4.5509996</pdop><geoidheight>0.00</geoidheight><course>128.6</course><type>1</type></trkpt>
      <trkpt lat="39.21866008" lon="-6.11789279"><ele>1074</ele><speed>9.00</speed><time>2019-05-26T12:47:20Z</time><pdop>4.5509996</pdop><geoidheight>0.00</geoidheight><course>129.0</course><type>1</type></trkpt>
      <trkpt lat="39.21860728" lon="-6.1178234"><ele>1074</ele><speed>8.35</speed><time>2019-05-26T12:47:21Z</time><pdop>4.5509996</pdop><geoidheight>0.00</geoidheight><course>127.4</course><type>1</type></trkpt>
      <trkpt lat="39.21855858" lon="-6.11774049"><ele>1074</ele><speed>9.39</speed><time>2019-05-26T12:47:22Z</time><pdop>4.5509996</pdop><geoidheight>0.00</geoidheight><course>129.4</course><type>1</type></trkpt>
      <trkpt lat="39.21849288" lon="-6.11764241"><ele>1073</ele><speed>11.31</speed><time>2019-05-26T12:47:23Z</time><pdop>4.5509996</pdop><geoidheight>0.00</geoidheight><course>134.6</course><type>1</type></trkpt>
      <trkpt lat="39.21841468" lon="-6.11755465"><ele>1073</ele><speed>12.78</speed><time>2019-05-26T12:47:24Z</time><pdop>4.5509996</pdop><geoidheight>0.00</geoidheight><course>139.4</course><type>1</type></trkpt>
      <trkpt lat="39.21832287" lon="-6.11746856"><ele>1074</ele><speed>12.63</speed><time>2019-05-26T12:47:25Z</time><pdop>6.068</pdop><geoidheight>0.00</geoidheight><course>142.4</course><type>1</type></trkpt>
      <trkpt lat="39.21816061" lon="-6.11733622"><ele>1077</ele><speed>10.31</speed><time>2019-05-26T12:47:27Z</time><pdop>4.5509996</pdop><geoidheight>0.00</geoidheight><course>148.9</course><type>1</type></trkpt>
      <trkpt lat="39.2180824" lon="-6.11727594"><ele>1077</ele><speed>10.94</speed><time>2019-05-26T12:47:28Z</time><pdop>4.5509996</pdop><geoidheight>0.00</geoidheight><course>151.1</course><type>1</type></trkpt>
      <trkpt lat="39.21797217" lon="-6.11721729"><ele>1076</ele><speed>12.69</speed><time>2019-05-26T12:47:29Z</time><pdop>4.5509996</pdop><geoidheight>0.00</geoidheight><course>154.1</course><type>1</type></trkpt>
      <trkpt lat="39.21786467" lon="-6.11715336"><ele>1076</ele><speed>13.92</speed><time>2019-05-26T12:47:30Z</time><pdop>4.5509996</pdop><geoidheight>0.00</geoidheight><course>158.1</course><type>1</type></trkpt>
      <trkpt lat="39.21773998" lon="-6.11711074"><ele>1075</ele><speed>13.98</speed><time>2019-05-26T12:47:31Z</time><pdop>4.5509996</pdop><geoidheight>0.00</geoidheight><course>163.5</course><type>1</type></trkpt>
      <trkpt lat="39.21762277" lon="-6.1170754"><ele>1074</ele><speed>13.15</speed><time>2019-05-26T12:47:32Z</time><pdop>4.5509996</pdop><geoidheight>0.00</geoidheight><course>168.2</course><type>1</type></trkpt>
      <trkpt lat="39.21751724" lon="-6.11706032"><ele>1073</ele><speed>12.69</speed><time>2019-05-26T12:47:33Z</time><pdop>4.5509996</pdop><geoidheight>0.00</geoidheight><course>166.6</course><type>1</type></trkpt>
      <trkpt lat="39.21740241" lon="-6.11701418"><ele>1072</ele><speed>13.07</speed><time>2019-05-26T12:47:34Z</time><pdop>4.5509996</pdop><geoidheight>0.00</geoidheight><course>160.1</course><type>1</type></trkpt>
      <trkpt lat="39.21728776" lon="-6.11694712"><ele>1072</ele><speed>13.98</speed><time>2019-05-26T12:47:35Z</time><pdop>4.5509996</pdop><geoidheight>0.00</geoidheight><course>153.3</course><type>1</type></trkpt>
      <trkpt lat="39.21718614" lon="-6.11686637"><ele>1073</ele><speed>13.29</speed><time>2019-05-26T12:47:36Z</time><pdop>4.5509996</pdop><geoidheight>0.00</geoidheight><course>146.3</course><type>1</type></trkpt>
      <trkpt lat="39.21710002" lon="-6.11678756"><ele>1074</ele><speed>11.09</speed><time>2019-05-26T12:47:37Z</time><pdop>4.5509996</pdop><geoidheight>0.00</geoidheight><course>139.7</course><type>1</type></trkpt>
      <trkpt lat="39.21703338" lon="-6.11670891"><ele>1075</ele><speed>9.61</speed><time>2019-05-26T12:47:38Z</time><pdop>4.5509996</pdop><geoidheight>0.00</geoidheight><course>137.6</course><type>1</type></trkpt>
      <trkpt lat="39.21697312" lon="-6.11663451"><ele>1074</ele><speed>9.29</speed><time>2019-05-26T12:47:39Z</time><pdop>4.5509996</pdop><geoidheight>0.00</geoidheight><course>133.2</course><type>1</type></trkpt>
      <trkpt lat="39.21691287" lon="-6.1165452"><ele>1074</ele><speed>10.29</speed><time>2019-05-26T12:47:40Z</time><pdop>4.5509996</pdop><geoidheight>0.00</geoidheight><course>128.8</course><type>1</type></trkpt>
      <trkpt lat="39.21686199" lon="-6.11644334"><ele>1073</ele><speed>10.74</speed><time>2019-05-26T12:47:41Z</time><pdop>4.5509996</pdop><geoidheight>0.00</geoidheight><course>122.1</course><type>1</type></trkpt>
      <trkpt lat="39.21682161" lon="-6.11633702"><ele>1072</ele><speed>10.05</speed><time>2019-05-26T12:47:42Z</time><pdop>4.5509996</pdop><geoidheight>0.00</geoidheight><course>115.4</course><type>1</type></trkpt>
      <trkpt lat="39.21678819" lon="-6.11622959"><ele>1073</ele><speed>9.09</speed><time>2019-05-26T12:47:43Z</time><pdop>4.5509996</pdop><geoidheight>0.00</geoidheight><course>113.4</course><type>1</type></trkpt>
      <trkpt lat="39.21675859" lon="-6.11613377"><ele>1074</ele><speed>8.00</speed><time>2019-05-26T12:47:44Z</time><pdop>4.5509996</pdop><geoidheight>0.00</geoidheight><course>111.4</course><type>1</type></trkpt>
      <trkpt lat="39.2166951" lon="-6.1159825"><ele>1072</ele><speed>7.29</speed><time>2019-05-26T12:47:46Z</time><pdop>4.5509996</pdop><geoidheight>0.00</geoidheight><course>115.0</course><type>1</type></trkpt>
      <trkpt lat="39.2166534" lon="-6.11590151"><ele>1069</ele><speed>7.92</speed><time>2019-05-26T12:47:47Z</time><pdop>4.5509996</pdop><geoidheight>0.00</geoidheight><course>114.7</course><type>1</type></trkpt>
      <trkpt lat="39.21662508" lon="-6.11581534"><ele>1066</ele><speed>8.87</speed><time>2019-05-26T12:47:48Z</time><pdop>4.5509996</pdop><geoidheight>0.00</geoidheight><course>114.1</course><type>1</type></trkpt>
      <trkpt lat="39.21659012" lon="-6.11570886"><ele>1064</ele><speed>10.19</speed><time>2019-05-26T12:47:49Z</time><pdop>4.5509996</pdop><geoidheight>0.00</geoidheight><course>114.4</course><type>1</type></trkpt>
      <trkpt lat="39.21656073" lon="-6.11559511"><ele>1064</ele><speed>10.94</speed><time>2019-05-26T12:47:50Z</time><pdop>4.5509996</pdop><geoidheight>0.00</geoidheight><course>113.2</course><type>1</type></trkpt>
      <trkpt lat="39.21653031" lon="-6.11548673"><ele>1064</ele><speed>9.90</speed><time>2019-05-26T12:47:51Z</time><pdop>4.5509996</pdop><geoidheight>0.00</geoidheight><course>108.0</course><type>1</type></trkpt>
      <trkpt lat="39.21651124" lon="-6.11538472"><ele>1063</ele><speed>8.51</speed><time>2019-05-26T12:47:52Z</time><pdop>4.5509996</pdop><geoidheight>0.00</geoidheight><course>100.5</course><type>1</type></trkpt>
      <trkpt lat="39.21650701" lon="-6.11521655"><ele>1061</ele><speed>6.99</speed><time>2019-05-26T12:47:54Z</time><pdop>4.5509996</pdop><geoidheight>0.00</geoidheight><course>87.8</course><type>1</type></trkpt>
      <trkpt lat="39.21652982" lon="-6.11507744"><ele>1057</ele><speed>4.53</speed><time>2019-05-26T12:47:56Z</time><pdop>4.5509996</pdop><geoidheight>0.00</geoidheight><course>58.2</course><type>1</type></trkpt>
      <trkpt lat="39.21661164" lon="-6.11502593"><ele>1052</ele><speed>5.17</speed><time>2019-05-26T12:47:58Z</time><pdop>4.5509996</pdop><geoidheight>0.00</geoidheight><course>14.8</course><type>1</type></trkpt>
      <trkpt lat="39.21668291" lon="-6.11493277"><ele>1053</ele><speed>5.73</speed><time>2019-05-26T12:48:00Z</time><pdop>4.5509996</pdop><geoidheight>0.00</geoidheight><course>77.9</course><type>1</type></trkpt>
      <trkpt lat="39.21667269" lon="-6.1147973"><ele>1050</ele><speed>5.99</speed><time>2019-05-26T12:48:02Z</time><pdop>4.5509996</pdop><geoidheight>0.00</geoidheight><course>101.2</course><type>1</type></trkpt>
      <trkpt lat="39.21667578" lon="-6.11462051"><ele>1045</ele><speed>9.14</speed><time>2019-05-26T12:48:04Z</time><pdop>4.5509996</pdop><geoidheight>0.00</geoidheight><course>82.9</course><type>1</type></trkpt>
      <trkpt lat="39.21667827" lon="-6.11450292"><ele>1043</ele><speed>10.35</speed><time>2019-05-26T12:48:05Z</time><pdop>4.5509996</pdop><geoidheight>0.00</geoidheight><course>94.4</course><type>1</type></trkpt>
      <trkpt lat="39.21665561" lon="-6.11438926"><ele>1044</ele><speed>10.77</speed><time>2019-05-26T12:48:06Z</time><pdop>4.5509996</pdop><geoidheight>0.00</geoidheight><course>113.3</course><type>1</type></trkpt>
      <trkpt lat="39.21660356" lon="-6.11428936"><ele>1042</ele><speed>10.75</speed><time>2019-05-26T12:48:07Z</time><pdop>4.5509996</pdop><geoidheight>0.00</geoidheight><course>125.1</course><type>1</type></trkpt>
      <trkpt lat="39.21655087" lon="-6.1141954"><ele>1042</ele><speed>10.34</speed><time>2019-05-26T12:48:08Z</time><pdop>4.5509996</pdop><geoidheight>0.00</geoidheight><course>127.5</course><type>1</type></trkpt>
      <trkpt lat="39.2164977" lon="-6.11408732"><ele>1041</ele><speed>10.14</speed><time>2019-05-26T12:48:09Z</time><pdop>4.5509996</pdop><geoidheight>0.00</geoidheight><course>123.5</course><type>1</type></trkpt>
      <trkpt lat="39.21645616" lon="-6.11398264"><ele>1038</ele><speed>10.79</speed><time>2019-05-26T12:48:10Z</time><pdop>4.5509996</pdop><geoidheight>0.00</geoidheight><course>119.9</course><type>1</type></trkpt>
      <trkpt lat="39.21639924" lon="-6.11386315"><ele>1035</ele><speed>12.10</speed><time>2019-05-26T12:48:11Z</time><pdop>4.5509996</pdop><geoidheight>0.00</geoidheight><course>122.5</course><type>1</type></trkpt>
      <trkpt lat="39.21633389" lon="-6.11372984"><ele>1033</ele><speed>13.21</speed><time>2019-05-26T12:48:12Z</time><pdop>4.5509996</pdop><geoidheight>0.00</geoidheight><course>125.0</course><type>1</type></trkpt>
      <trkpt lat="39.21626248" lon="-6.1136036"><ele>1032</ele><speed>13.32</speed><time>2019-05-26T12:48:13Z</time><pdop>4.5509996</pdop><geoidheight>0.00</geoidheight><course>126.6</course><type>1</type></trkpt>
      <trkpt lat="39.2161891" lon="-6.11348916"><ele>1031</ele><speed>12.52</speed><time>2019-05-26T12:48:14Z</time><pdop>4.5509996</pdop><geoidheight>0.00</geoidheight><course>128.7</course><type>1</type></trkpt>
      <trkpt lat="39.21612637" lon="-6.11338263"><ele>1028</ele><speed>11.81</speed><time>2019-05-26T12:48:15Z</time><pdop>4.5509996</pdop><geoidheight>0.00</geoidheight><course>131.6</course><type>1</type></trkpt>
      <trkpt lat="39.21605652" lon="-6.11328482"><ele>1026</ele><speed>12.43</speed><time>2019-05-26T12:48:16Z</time><pdop>4.5509996</pdop><geoidheight>0.00</geoidheight><course>135.8</course><type>1</type></trkpt>
      <trkpt lat="39.2159622" lon="-6.11317736"><ele>1023</ele><speed>13.90</speed><time>2019-05-26T12:48:17Z</time><pdop>4.5509996</pdop><geoidheight>0.00</geoidheight><course>137.6</course><type>1</type></trkpt>
      <trkpt lat="39.21587239" lon="-6.11306432"><ele>1019</ele><speed>14.74</speed><time>2019-05-26T12:48:18Z</time><pdop>4.5509996</pdop><geoidheight>0.00</geoidheight><course>136.6</course><type>1</type></trkpt>
      <trkpt lat="39.21578478" lon="-6.11295303"><ele>1016</ele><speed>14.23</speed><time>2019-05-26T12:48:19Z</time><pdop>4.5509996</pdop><geoidheight>0.00</geoidheight><course>135.7</course><type>1</type></trkpt>
      <trkpt lat="39.21570356" lon="-6.11285204"><ele>1013</ele><speed>13.59</speed><time>2019-05-26T12:48:20Z</time><pdop>4.5509996</pdop><geoidheight>0.00</geoidheight><course>137.1</course><type>1</type></trkpt>
      <trkpt lat="39.21561104" lon="-6.11274479"><ele>1010</ele><speed>13.39</speed><time>2019-05-26T12:48:21Z</time><pdop>4.5509996</pdop><geoidheight>0.00</geoidheight><course>139.3</course><type>1</type></trkpt>
      <trkpt lat="39.21551446" lon="-6.11264451"><ele>1007</ele><speed>13.73</speed><time>2019-05-26T12:48:22Z</time><pdop>4.5509996</pdop><geoidheight>0.00</geoidheight><course>139.6</course><type>1</type></trkpt>
      <trkpt lat="39.21541854" lon="-6.11254818"><ele>1005</ele><speed>13.85</speed><time>2019-05-26T12:48:23Z</time><pdop>4.5509996</pdop><geoidheight>0.00</geoidheight><course>142.4</course><type>1</type></trkpt>
      <trkpt lat="39.21531357" lon="-6.11246055"><ele>1003</ele><speed>13.67</speed><time>2019-05-26T12:48:24Z</time><pdop>4.5509996</pdop><geoidheight>0.00</geoidheight><course>147.1</course><type>1</type></trkpt>
      <trkpt lat="39.21520621" lon="-6.11238617"><ele>1000</ele><speed>13.24</speed><time>2019-05-26T12:48:25Z</time><pdop>4.5509996</pdop><geoidheight>0.00</geoidheight><course>150.7</course><type>1</type></trkpt>
      <trkpt lat="39.21510204" lon="-6.11231899"><ele>998</ele><speed>13.47</speed><time>2019-05-26T12:48:26Z</time><pdop>4.5509996</pdop><geoidheight>0.00</geoidheight><course>152.9</course><type>1</type></trkpt>
      <trkpt lat="39.2149954" lon="-6.11224609"><ele>995</ele><speed>13.63</speed><time>2019-05-26T12:48:27Z</time><pdop>4.5509996</pdop><geoidheight>0.00</geoidheight><course>153.8</course><type>1</type></trkpt>
      <trkpt lat="39.2148771" lon="-6.11217357"><ele>991</ele><speed>13.98</speed><time>2019-05-26T12:48:28Z</time><pdop>4.5509996</pdop><geoidheight>0.00</geoidheight><course>156.3</course><type>1</type></trkpt>
      <trkpt lat="39.21475761" lon="-6.11210816"><ele>988</ele><speed>14.14</speed><time>2019-05-26T12:48:29Z</time><pdop>4.5509996</pdop><geoidheight>0.00</geoidheight><course>158.3</course><type>1</type></trkpt>
      <trkpt lat="39.21462926" lon="-6.1120568"><ele>984</ele><speed>14.47</speed><time>2019-05-26T12:48:30Z</time><pdop>4.5509996</pdop><geoidheight>0.00</geoidheight><course>158.9</course><type>1</type></trkpt>
      <trkpt lat="39.21451057" lon="-6.11199767"><ele>982</ele><speed>14.45</speed><time>2019-05-26T12:48:31Z</time><pdop>4.5509996</pdop><geoidheight>0.00</geoidheight><course>159.4</course><type>1</type></trkpt>
      <trkpt lat="39.21438826" lon="-6.11194046"><ele>980</ele><speed>14.28</speed><time>2019-05-26T12:48:32Z</time><pdop>4.5509996</pdop><geoidheight>0.00</geoidheight><course>161.8</course><type>1</type></trkpt>
      <trkpt lat="39.21426025" lon="-6.11190198"><ele>978</ele><speed>14.20</speed><time>2019-05-26T12:48:33Z</time><pdop>4.5509996</pdop><geoidheight>0.00</geoidheight><course>166.0</course><type>1</type></trkpt>
      <trkpt lat="39.21412684" lon="-6.11187578"><ele>975</ele><speed>14.78</speed><time>2019-05-26T12:48:34Z</time><pdop>4.5509996</pdop><geoidheight>0.00</geoidheight><course>169.4</course><type>1</type></trkpt>
      <trkpt lat="39.21399142" lon="-6.11183992"><ele>973</ele><speed>15.02</speed><time>2019-05-26T12:48:35Z</time><pdop>4.5509996</pdop><geoidheight>0.00</geoidheight><course>168.8</course><type>1</type></trkpt>
      <trkpt lat="39.21386607" lon="-6.11179858"><ele>971</ele><speed>15.05</speed><time>2019-05-26T12:48:36Z</time><pdop>4.5509996</pdop><geoidheight>0.00</geoidheight><course>168.0</course><type>1</type></trkpt>
      <trkpt lat="39.2137377" lon="-6.11176914"><ele>969</ele><speed>14.57</speed><time>2019-05-26T12:48:37Z</time><pdop>4.5509996</pdop><geoidheight>0.00</geoidheight><course>168.4</course><type>1</type></trkpt>
      <trkpt lat="39.21361651" lon="-6.11173828"><ele>968</ele><speed>14.04</speed><time>2019-05-26T12:48:38Z</time><pdop>4.5509996</pdop><geoidheight>0.00</geoidheight><course>169.6</course><type>1</type></trkpt>
      <trkpt lat="39.21349565" lon="-6.11170814"><ele>966</ele><speed>13.97</speed><time>2019-05-26T12:48:39Z</time><pdop>4.5509996</pdop><geoidheight>0.00</geoidheight><course>170.6</course><type>1</type></trkpt>
      <trkpt lat="39.21337909" lon="-6.11169115"><ele>963</ele><speed>13.84</speed><time>2019-05-26T12:48:40Z</time><pdop>4.5509996</pdop><geoidheight>0.00</geoidheight><course>171.4</course><type>1</type></trkpt>
      <trkpt lat="39.21326262" lon="-6.11166989"><ele>962</ele><speed>12.97</speed><time>2019-05-26T12:48:41Z</time><pdop>4.5509996</pdop><geoidheight>0.00</geoidheight><course>169.7</course><type>1</type></trkpt>
      <trkpt lat="39.21315254" lon="-6.11163983"><ele>960</ele><speed>12.30</speed><time>2019-05-26T12:48:42Z</time><pdop>4.5509996</pdop><geoidheight>0.00</geoidheight><course>167.3</course><type>1</type></trkpt>
      <trkpt lat="39.21303999" lon="-6.11160532"><ele>956</ele><speed>12.06</speed><time>2019-05-26T12:48:43Z</time><pdop>4.5509996</pdop><geoidheight>0.00</geoidheight><course>165.4</course><type>1</type></trkpt>
      <trkpt lat="39.21293296" lon="-6.11156931"><ele>952</ele><speed>12.29</speed><time>2019-05-26T12:48:44Z</time><pdop>4.5509996</pdop><geoidheight>0.00</geoidheight><course>161.9</course><type>1</type></trkpt>
      <trkpt lat="39.21282316" lon="-6.11151199"><ele>948</ele><speed>12.93</speed><time>2019-05-26T12:48:45Z</time><pdop>4.5509996</pdop><geoidheight>0.00</geoidheight><course>157.4</course><type>1</type></trkpt>
      <trkpt lat="39.21271381" lon="-6.11144443"><ele>944</ele><speed>13.18</speed><time>2019-05-26T12:48:46Z</time><pdop>4.5509996</pdop><geoidheight>0.00</geoidheight><course>154.3</course><type>1</type></trkpt>
      <trkpt lat="39.21260699" lon="-6.11137105"><ele>941</ele><speed>13.10</speed><time>2019-05-26T12:48:47Z</time><pdop>4.5509996</pdop><geoidheight>0.00</geoidheight><course>152.0</course><type>1</type></trkpt>
      <trkpt lat="39.21250779" lon="-6.11130564"><ele>938</ele><speed>12.35</speed><time>2019-05-26T12:48:48Z</time><pdop>4.5509996</pdop><geoidheight>0.00</geoidheight><course>153.2</course><type>1</type></trkpt>
      <trkpt lat="39.21241949" lon="-6.11125328"><ele>935</ele><speed>10.34</speed><time>2019-05-26T12:48:49Z</time><pdop>4.5509996</pdop><geoidheight>0.00</geoidheight><course>156.3</course><type>1</type></trkpt>
      <trkpt lat="39.21234472" lon="-6.1112122"><ele>930</ele><speed>8.71</speed><time>2019-05-26T12:48:50Z</time><pdop>4.5509996</pdop><geoidheight>0.00</geoidheight><course>158.7</course><type>1</type></trkpt>
      <trkpt lat="39.21226348" lon="-6.11116869"><ele>925</ele><speed>9.64</speed><time>2019-05-26T12:48:51Z</time><pdop>4.5509996</pdop><geoidheight>0.00</geoidheight><course>155.4</course><type>1</type></trkpt>
      <trkpt lat="39.21217708" lon="-6.11110358"><ele>918</ele><speed>11.66</speed><time>2019-05-26T12:48:52Z</time><pdop>4.5509996</pdop><geoidheight>0.00</geoidheight><course>148.8</course><type>1</type></trkpt>
      <trkpt lat="39.21207471" lon="-6.1110105"><ele>912</ele><speed>13.88</speed><time>2019-05-26T12:48:53Z</time><pdop>4.5509996</pdop><geoidheight>0.00</geoidheight><course>144.8</course><type>1</type></trkpt>
      <trkpt lat="39.21197608" lon="-6.11091793"><ele>907</ele><speed>14.24</speed><time>2019-05-26T12:48:54Z</time><pdop>4.5509996</pdop><geoidheight>0.00</geoidheight><course>141.1</course><type>1</type></trkpt>
      <trkpt lat="39.21187348" lon="-6.11082949"><ele>903</ele><speed>12.90</speed><time>2019-05-26T12:48:55Z</time><pdop>4.5509996</pdop><geoidheight>0.00</geoidheight><course>141.5</course><type>1</type></trkpt>
      <trkpt lat="39.21179688" lon="-6.11074293"><ele>923</ele><speed>11.02</speed><time>2019-05-26T12:48:56Z</time><pdop>4.5509996</pdop><geoidheight>0.00</geoidheight><course>142.7</course><type>1</type></trkpt>
      <trkpt lat="39.21172325" lon="-6.11066469"><ele>912</ele><speed>10.26</speed><time>2019-05-26T12:48:57Z</time><pdop>4.5509996</pdop><geoidheight>0.00</geoidheight><course>143.9</course><type>1</type></trkpt>
      <trkpt lat="39.21164409" lon="-6.11059087"><ele>904</ele><speed>10.83</speed><time>2019-05-26T12:48:58Z</time><pdop>4.5509996</pdop><geoidheight>0.00</geoidheight><course>145.0</course><type>1</type></trkpt>
      <trkpt lat="39.21155948" lon="-6.11051291"><ele>895</ele><speed>11.66</speed><time>2019-05-26T12:48:59Z</time><pdop>4.5509996</pdop><geoidheight>0.00</geoidheight><course>143.6</course><type>1</type></trkpt>
      <trkpt lat="39.21147025" lon="-6.11041635"><ele>888</ele><speed>12.83</speed><time>2019-05-26T12:49:00Z</time><pdop>4.5509996</pdop><geoidheight>0.00</geoidheight><course>139.9</course><type>1</type></trkpt>
      <trkpt lat="39.21138326" lon="-6.11030857"><ele>883</ele><speed>13.27</speed><time>2019-05-26T12:49:01Z</time><pdop>4.5509996</pdop><geoidheight>0.00</geoidheight><course>136.1</course><type>1</type></trkpt>
      <trkpt lat="39.21129809" lon="-6.11020332"><ele>879</ele><speed>12.61</speed><time>2019-05-26T12:49:02Z</time><pdop>4.5509996</pdop><geoidheight>0.00</geoidheight><course>138.2</course><type>1</type></trkpt>
      <trkpt lat="39.21121369" lon="-6.11011923"><ele>876</ele><speed>12.30</speed><time>2019-05-26T12:49:03Z</time><pdop>4.5509996</pdop><geoidheight>0.00</geoidheight><course>143.3</course><type>1</type></trkpt>
      <trkpt lat="39.21112328" lon="-6.11003948"><ele>873</ele><speed>12.70</speed><time>2019-05-26T12:49:04Z</time><pdop>4.5509996</pdop><geoidheight>0.00</geoidheight><course>145.5</course><type>1</type></trkpt>
      <trkpt lat="39.21102703" lon="-6.10995624"><ele>870</ele><speed>13.01</speed><time>2019-05-26T12:49:05Z</time><pdop>4.5509996</pdop><geoidheight>0.00</geoidheight><course>146.2</course><type>1</type></trkpt>
      <trkpt lat="39.2109278" lon="-6.10986704"><ele>867</ele><speed>13.39</speed><time>2019-05-26T12:49:06Z</time><pdop>4.5509996</pdop><geoidheight>0.00</geoidheight><course>146.9</course><type>1</type></trkpt>
      <trkpt lat="39.21081684" lon="-6.10979035"><ele>864</ele><speed>14.21</speed><time>2019-05-26T12:49:07Z</time><pdop>4.5509996</pdop><geoidheight>0.00</geoidheight><course>150.7</course><type>1</type></trkpt>
      <trkpt lat="39.21069857" lon="-6.10972516"><ele>861</ele><speed>14.96</speed><time>2019-05-26T12:49:08Z</time><pdop>4.5509996</pdop><geoidheight>0.00</geoidheight><course>157.5</course><type>1</type></trkpt>
      <trkpt lat="39.21057416" lon="-6.10967621"><ele>860</ele><speed>15.13</speed><time>2019-05-26T12:49:09Z</time><pdop>4.5509996</pdop><geoidheight>0.00</geoidheight><course>163.7</course><type>1</type></trkpt>
      <trkpt lat="39.21044233" lon="-6.10964704"><ele>860</ele><speed>14.33</speed><time>2019-05-26T12:49:10Z</time><pdop>4.5509996</pdop><geoidheight>0.00</geoidheight><course>168.0</course><type>1</type></trkpt>
      <trkpt lat="39.21032372" lon="-6.10963138"><ele>861</ele><speed>13.56</speed><time>2019-05-26T12:49:11Z</time><pdop>4.5509996</pdop><geoidheight>0.00</geoidheight><course>169.1</course><type>1</type></trkpt>
      <trkpt lat="39.21020672" lon="-6.10960602"><ele>858</ele><speed>13.53</speed><time>2019-05-26T12:49:12Z</time><pdop>4.5509996</pdop><geoidheight>0.00</geoidheight><course>172.3</course><type>1</type></trkpt>
      <trkpt lat="39.21007885" lon="-6.10959947"><ele>856</ele><speed>14.54</speed><time>2019-05-26T12:49:13Z</time><pdop>4.5509996</pdop><geoidheight>0.00</geoidheight><course>175.7</course><type>1</type></trkpt>
      <trkpt lat="39.20994483" lon="-6.1095909"><ele>853</ele><speed>15.76</speed><time>2019-05-26T12:49:14Z</time><pdop>4.5509996</pdop><geoidheight>0.00</geoidheight><course>179.1</course><type>1</type></trkpt>
      <trkpt lat="39.20980693" lon="-6.10958855"><ele>853</ele><speed>15.57</speed><time>2019-05-26T12:49:15Z</time><pdop>4.5509996</pdop><geoidheight>0.00</geoidheight><course>182.0</course><type>1</type></trkpt>
      <trkpt lat="39.20967333" lon="-6.10958427"><ele>851</ele><speed>14.10</speed><time>2019-05-26T12:49:16Z</time><pdop>4.5509996</pdop><geoidheight>0.00</geoidheight><course>182.1</course><type>1</type></trkpt>
      <trkpt lat="39.20955421" lon="-6.10959052"><ele>850</ele><speed>12.58</speed><time>2019-05-26T12:49:17Z</time><pdop>4.5509996</pdop><geoidheight>0.00</geoidheight><course>182.4</course><type>1</type></trkpt>
      <trkpt lat="39.20944313" lon="-6.10959393"><ele>848</ele><speed>12.02</speed><time>2019-05-26T12:49:18Z</time><pdop>4.5509996</pdop><geoidheight>0.00</geoidheight><course>181.8</course><type>1</type></trkpt>
      <trkpt lat="39.20932602" lon="-6.10960296"><ele>845</ele><speed>13.11</speed><time>2019-05-26T12:49:19Z</time><pdop>4.5509996</pdop><geoidheight>0.00</geoidheight><course>183.6</course><type>1</type></trkpt>
      <trkpt lat="39.20920262" lon="-6.10962077"><ele>842</ele><speed>14.14</speed><time>2019-05-26T12:49:20Z</time><pdop>4.5509996</pdop><geoidheight>0.00</geoidheight><course>189.7</course><type>1</type></trkpt>
      <trkpt lat="39.20908224" lon="-6.10966908"><ele>839</ele><speed>14.37</speed><time>2019-05-26T12:49:21Z</time><pdop>4.5509996</pdop><geoidheight>0.00</geoidheight><course>198.0</course><type>1</type></trkpt>
      <trkpt lat="39.20896733" lon="-6.1097177"><ele>839</ele><speed>13.38</speed><time>2019-05-26T12:49:22Z</time><pdop>4.5509996</pdop><geoidheight>0.00</geoidheight><course>201.0</course><type>1</type></trkpt>
      <trkpt lat="39.20885613" lon="-6.10976895"><ele>838</ele><speed>12.18</speed><time>2019-05-26T12:49:23Z</time><pdop>4.5509996</pdop><geoidheight>0.00</geoidheight><course>194.9</course><type>1</type></trkpt>
      <trkpt lat="39.20874293" lon="-6.10980832"><ele>835</ele><speed>12.53</speed><time>2019-05-26T12:49:24Z</time><pdop>4.5509996</pdop><geoidheight>0.00</geoidheight><course>189.1</course><type>1</type></trkpt>
      <trkpt lat="39.20862285" lon="-6.10983836"><ele>830</ele><speed>14.64</speed><time>2019-05-26T12:49:25Z</time><pdop>4.5509996</pdop><geoidheight>0.00</geoidheight><course>189.6</course><type>1</type></trkpt>
      <trkpt lat="39.20848944" lon="-6.10988227"><ele>825</ele><speed>16.17</speed><time>2019-05-26T12:49:26Z</time><pdop>4.5509996</pdop><geoidheight>0.00</geoidheight><course>194.2</course><type>1</type></trkpt>
      <trkpt lat="39.20835458" lon="-6.10994209"><ele>822</ele><speed>16.06</speed><time>2019-05-26T12:49:27Z</time><pdop>4.5509996</pdop><geoidheight>0.00</geoidheight><course>201.0</course><type>1</type></trkpt>
      <trkpt lat="39.20823025" lon="-6.10999959"><ele>820</ele><speed>12.71</speed><time>2019-05-26T12:49:28Z</time><pdop>4.5509996</pdop><geoidheight>0.00</geoidheight><course>201.4</course><type>1</type></trkpt>
      <trkpt lat="39.20813532" lon="-6.11004335"><ele>817</ele><speed>9.91</speed><time>2019-05-26T12:49:29Z</time><pdop>4.5509996</pdop><geoidheight>0.00</geoidheight><course>194.3</course><type>1</type></trkpt>
      <trkpt lat="39.20804311" lon="-6.11005901"><ele>816</ele><speed>10.35</speed><time>2019-05-26T12:49:30Z</time><pdop>4.5509996</pdop><geoidheight>0.00</geoidheight><course>189.2</course><type>1</type></trkpt>
      <trkpt lat="39.20794632" lon="-6.11007056"><ele>814</ele><speed>10.37</speed><time>2019-05-26T12:49:31Z</time><pdop>6.068</pdop><geoidheight>0.00</geoidheight><course>188.0</course><type>1</type></trkpt>
      <trkpt lat="39.20783606" lon="-6.11010763"><ele>810</ele><speed>12.85</speed><time>2019-05-26T12:49:32Z</time><pdop>6.068</pdop><geoidheight>0.00</geoidheight><course>194.0</course><type>1</type></trkpt>
      <trkpt lat="39.20771443" lon="-6.11016412"><ele>810</ele><speed>13.96</speed><time>2019-05-26T12:49:33Z</time><pdop>6.068</pdop><geoidheight>0.00</geoidheight><course>196.0</course><type>1</type></trkpt>
      <trkpt lat="39.20759562" lon="-6.11020515"><ele>809</ele><speed>13.26</speed><time>2019-05-26T12:49:34Z</time><pdop>6.068</pdop><geoidheight>0.00</geoidheight><course>193.6</course><type>1</type></trkpt>
      <trkpt lat="39.20748571" lon="-6.11022104"><ele>805</ele><speed>12.14</speed><time>2019-05-26T12:49:35Z</time><pdop>6.068</pdop><geoidheight>0.00</geoidheight><course>184.2</course><type>1</type></trkpt>
      <trkpt lat="39.20728044" lon="-6.11021126"><ele>796</ele><speed>13.03</speed><time>2019-05-26T12:49:37Z</time><pdop>6.068</pdop><geoidheight>0.00</geoidheight><course>172.7</course><type>1</type></trkpt>
      <trkpt lat="39.20715295" lon="-6.1101941"><ele>792</ele><speed>14.49</speed><time>2019-05-26T12:49:38Z</time><pdop>6.068</pdop><geoidheight>0.00</geoidheight><course>178.1</course><type>1</type></trkpt>
      <trkpt lat="39.2070112" lon="-6.1101909"><ele>788</ele><speed>15.90</speed><time>2019-05-26T12:49:39Z</time><pdop>6.068</pdop><geoidheight>0.00</geoidheight><course>182.9</course><type>1</type></trkpt>
      <trkpt lat="39.20686469" lon="-6.11018153"><ele>784</ele><speed>15.49</speed><time>2019-05-26T12:49:40Z</time><pdop>6.068</pdop><geoidheight>0.00</geoidheight><course>185.4</course><type>1</type></trkpt>
      <trkpt lat="39.20673268" lon="-6.11018561"><ele>782</ele><speed>14.49</speed><time>2019-05-26T12:49:41Z</time><pdop>6.068</pdop><geoidheight>0.00</geoidheight><course>185.0</course><type>1</type></trkpt>
      <trkpt lat="39.2066034" lon="-6.11018434"><ele>780</ele><speed>13.70</speed><time>2019-05-26T12:49:42Z</time><pdop>6.068</pdop><geoidheight>0.00</geoidheight><course>182.7</course><type>1</type></trkpt>
      <trkpt lat="39.20648135" lon="-6.11018834"><ele>778</ele><speed>13.60</speed><time>2019-05-26T12:49:43Z</time><pdop>6.068</pdop><geoidheight>0.00</geoidheight><course>180.9</course><type>1</type></trkpt>
      <trkpt lat="39.20634821" lon="-6.11019536"><ele>776</ele><speed>14.91</speed><time>2019-05-26T12:49:44Z</time><pdop>6.068</pdop><geoidheight>0.00</geoidheight><course>181.2</course><type>1</type></trkpt>
      <trkpt lat="39.20621043" lon="-6.11018744"><ele>773</ele><speed>15.32</speed><time>2019-05-26T12:49:45Z</time><pdop>6.068</pdop><geoidheight>0.00</geoidheight><course>181.9</course><type>1</type></trkpt>
      <trkpt lat="39.20607585" lon="-6.11020233"><ele>773</ele><speed>14.58</speed><time>2019-05-26T12:49:46Z</time><pdop>6.068</pdop><geoidheight>0.00</geoidheight><course>184.7</course><type>1</type></trkpt>
      <trkpt lat="39.20595479" lon="-6.11023536"><ele>771</ele><speed>14.24</speed><time>2019-05-26T12:49:47Z</time><pdop>7.585</pdop><geoidheight>0.00</geoidheight><course>184.5</course><type>1</type></trkpt>
      <trkpt lat="39.20582655" lon="-6.11025371"><ele>770</ele><speed>14.36</speed><time>2019-05-26T12:49:48Z</time><pdop>7.585</pdop><geoidheight>0.00</geoidheight><course>182.0</course><type>1</type></trkpt>
      <trkpt lat="39.20569847" lon="-6.11026566"><ele>772</ele><speed>14.45</speed><time>2019-05-26T12:49:49Z</time><pdop>6.068</pdop><geoidheight>0.00</geoidheight><course>177.0</course><type>1</type></trkpt>
      <trkpt lat="39.20557463" lon="-6.11024778"><ele>771</ele><speed>13.97</speed><time>2019-05-26T12:49:50Z</time><pdop>6.068</pdop><geoidheight>0.00</geoidheight><course>170.9</course><type>1</type></trkpt>
      <trkpt lat="39.20536105" lon="-6.11018351"><ele>771</ele><speed>12.45</speed><time>2019-05-26T12:49:52Z</time><pdop>7.585</pdop><geoidheight>0.00</geoidheight><course>162.6</course><type>1</type></trkpt>
      <trkpt lat="39.20515044" lon="-6.11006728"><ele>763</ele><speed>13.43</speed><time>2019-05-26T12:49:54Z</time><pdop>6.068</pdop><geoidheight>0.00</geoidheight><course>148.7</course><type>1</type></trkpt>
      <trkpt lat="39.20505905" lon="-6.10996449"><ele>759</ele><speed>14.05</speed><time>2019-05-26T12:49:55Z</time><pdop>7.585</pdop><geoidheight>0.00</geoidheight><course>140.1</course><type>1</type></trkpt>
      <trkpt lat="39.2048913" lon="-6.10977238"><ele>753</ele><speed>10.59</speed><time>2019-05-26T12:49:57Z</time><pdop>6.068</pdop><geoidheight>0.00</geoidheight><course>134.5</course><type>1</type></trkpt>
      <trkpt lat="39.20476366" lon="-6.10963209"><ele>746</ele><speed>9.15</speed><time>2019-05-26T12:49:59Z</time><pdop>6.068</pdop><geoidheight>0.00</geoidheight><course>139.4</course><type>1</type></trkpt>
      <trkpt lat="39.20457116" lon="-6.10946908"><ele>733</ele><speed>14.76</speed><time>2019-05-26T12:50:01Z</time><pdop>6.068</pdop><geoidheight>0.00</geoidheight><course>153.9</course><type>1</type></trkpt>
      <trkpt lat="39.20442859" lon="-6.10940287"><ele>728</ele><speed>17.53</speed><time>2019-05-26T12:50:02Z</time><pdop>6.068</pdop><geoidheight>0.00</geoidheight><course>162.6</course><type>1</type></trkpt>
      <trkpt lat="39.20427384" lon="-6.10936304"><ele>729</ele><speed>16.96</speed><time>2019-05-26T12:50:03Z</time><pdop>6.068</pdop><geoidheight>0.00</geoidheight><course>166.9</course><type>1</type></trkpt>
      <trkpt lat="39.20414483" lon="-6.10932267"><ele>729</ele><speed>14.15</speed><time>2019-05-26T12:50:04Z</time><pdop>6.068</pdop><geoidheight>0.00</geoidheight><course>164.9</course><type>1</type></trkpt>
      <trkpt lat="39.20403099" lon="-6.10927293"><ele>728</ele><speed>12.71</speed><time>2019-05-26T12:50:05Z</time><pdop>6.068</pdop><geoidheight>0.00</geoidheight><course>162.9</course><type>1</type></trkpt>
      <trkpt lat="39.20383289" lon="-6.10918179"><ele>726</ele><speed>13.46</speed><time>2019-05-26T12:50:07Z</time><pdop>6.068</pdop><geoidheight>0.00</geoidheight><course>158.9</course><type>1</type></trkpt>
      <trkpt lat="39.20371091" lon="-6.10913591"><ele>725</ele><speed>14.70</speed><time>2019-05-26T12:50:08Z</time><pdop>6.068</pdop><geoidheight>0.00</geoidheight><course>164.0</course><type>1</type></trkpt>
      <trkpt lat="39.20356752" lon="-6.10912658"><ele>725</ele><speed>15.69</speed><time>2019-05-26T12:50:09Z</time><pdop>6.068</pdop><geoidheight>0.00</geoidheight><course>175.0</course><type>1</type></trkpt>
      <trkpt lat="39.20344018" lon="-6.10911724"><ele>724</ele><speed>13.28</speed><time>2019-05-26T12:50:10Z</time><pdop>6.068</pdop><geoidheight>0.00</geoidheight><course>179.1</course><type>1</type></trkpt>
      <trkpt lat="39.2032592" lon="-6.10912266"><ele>726</ele><speed>9.33</speed><time>2019-05-26T12:50:12Z</time><pdop>7.585</pdop><geoidheight>0.00</geoidheight><course>181.2</course><type>1</type></trkpt>
      <trkpt lat="39.2030665" lon="-6.10914258"><ele>721</ele><speed>12.98</speed><time>2019-05-26T12:50:14Z</time><pdop>7.585</pdop><geoidheight>0.00</geoidheight><course>180.7</course><type>1</type></trkpt>
      <trkpt lat="39.20294777" lon="-6.1091399"><ele>719</ele><speed>13.76</speed><time>2019-05-26T12:50:15Z</time><pdop>6.068</pdop><geoidheight>0.00</geoidheight><course>179.5</course><type>1</type></trkpt>
      <trkpt lat="39.20282149" lon="-6.10912719"><ele>717</ele><speed>12.91</speed><time>2019-05-26T12:50:16Z</time><pdop>7.585</pdop><geoidheight>0.00</geoidheight><course>176.0</course><type>1</type></trkpt>
      <trkpt lat="39.20262957" lon="-6.10909766"><ele>720</ele><speed>9.78</speed><time>2019-05-26T12:50:18Z</time><pdop>7.585</pdop><geoidheight>0.00</geoidheight><course>176.3</course><type>1</type></trkpt>
      <trkpt lat="39.2024591" lon="-6.10910293"><ele>716</ele><speed>10.27</speed><time>2019-05-26T12:50:20Z</time><pdop>7.585</pdop><geoidheight>0.00</geoidheight><course>182.7</course><type>1</type></trkpt>
      <trkpt lat="39.20224012" lon="-6.10913854"><ele>711</ele><speed>12.79</speed><time>2019-05-26T12:50:22Z</time><pdop>7.585</pdop><geoidheight>0.00</geoidheight><course>188.8</course><type>1</type></trkpt>
      <trkpt lat="39.20202706" lon="-6.1091774"><ele>705</ele><speed>11.59</speed><time>2019-05-26T12:50:24Z</time><pdop>7.585</pdop><geoidheight>0.00</geoidheight><course>188.4</course><type>1</type></trkpt>
      <trkpt lat="39.20180899" lon="-6.10921766"><ele>698</ele><speed>11.95</speed><time>2019-05-26T12:50:26Z</time><pdop>7.585</pdop><geoidheight>0.00</geoidheight><course>187.3</course><type>1</type></trkpt>
      <trkpt lat="39.20159515" lon="-6.10923497"><ele>692</ele><speed>12.26</speed><time>2019-05-26T12:50:28Z</time><pdop>6.068</pdop><geoidheight>0.00</geoidheight><course>176.9</course><type>1</type></trkpt>
      <trkpt lat="39.20139696" lon="-6.10917823"><ele>683</ele><speed>11.27</speed><time>2019-05-26T12:50:30Z</time><pdop>6.068</pdop><geoidheight>0.00</geoidheight><course>161.9</course><type>1</type></trkpt>
      <trkpt lat="39.20120288" lon="-6.10910588"><ele>677</ele><speed>11.78</speed><time>2019-05-26T12:50:32Z</time><pdop>6.068</pdop><geoidheight>0.00</geoidheight><course>167.1</course><type>1</type></trkpt>
      <trkpt lat="39.20109655" lon="-6.10908101"><ele>672</ele><speed>11.88</speed><time>2019-05-26T12:50:33Z</time><pdop>6.068</pdop><geoidheight>0.00</geoidheight><course>171.2</course><type>1</type></trkpt>
      <trkpt lat="39.20098848" lon="-6.10906053"><ele>668</ele><speed>11.59</speed><time>2019-05-26T12:50:34Z</time><pdop>6.068</pdop><geoidheight>0.00</geoidheight><course>171.1</course><type>1</type></trkpt>
      <trkpt lat="39.20079502" lon="-6.10900132"><ele>660</ele><speed>10.29</speed><time>2019-05-26T12:50:36Z</time><pdop>6.068</pdop><geoidheight>0.00</geoidheight><course>164.8</course><type>1</type></trkpt>
      <trkpt lat="39.20063476" lon="-6.10894158"><ele>791</ele><speed>9.50</speed><time>2019-05-26T12:50:38Z</time><pdop>6.068</pdop><geoidheight>0.00</geoidheight><course>160.9</course><type>1</type></trkpt>
      <trkpt lat="39.20045645" lon="-6.10886142"><ele>705</ele><speed>10.01</speed><time>2019-05-26T12:50:40Z</time><pdop>6.068</pdop><geoidheight>0.00</geoidheight><course>154.7</course><type>1</type></trkpt>
      <trkpt lat="39.200316" lon="-6.10875278"><ele>668</ele><speed>9.36</speed><time>2019-05-26T12:50:42Z</time><pdop>4.5509996</pdop><geoidheight>0.00</geoidheight><course>149.0</course><type>1</type></trkpt>
      <trkpt lat="39.2002433" lon="-6.10869466"><ele>658</ele><speed>9.69</speed><time>2019-05-26T12:50:43Z</time><pdop>4.5509996</pdop><geoidheight>0.00</geoidheight><course>143.7</course><type>1</type></trkpt>
      <trkpt lat="39.20017615" lon="-6.10862824"><ele>651</ele><speed>10.03</speed><time>2019-05-26T12:50:44Z</time><pdop>4.5509996</pdop><geoidheight>0.00</geoidheight><course>138.8</course><type>1</type></trkpt>
      <trkpt lat="39.2001124" lon="-6.10855448"><ele>645</ele><speed>10.06</speed><time>2019-05-26T12:50:45Z</time><pdop>4.5509996</pdop><geoidheight>0.00</geoidheight><course>137.2</course><type>1</type></trkpt>
      <trkpt lat="39.20004129" lon="-6.10848302"><ele>641</ele><speed>9.73</speed><time>2019-05-26T12:50:46Z</time><pdop>6.068</pdop><geoidheight>0.00</geoidheight><course>135.8</course><type>1</type></trkpt>
      <trkpt lat="39.19993309" lon="-6.10832149"><ele>632</ele><speed>8.72</speed><time>2019-05-26T12:50:48Z</time><pdop>6.068</pdop><geoidheight>0.00</geoidheight><course>122.5</course><type>1</type></trkpt>
      <trkpt lat="39.19985915" lon="-6.1081329"><ele>623</ele><speed>7.71</speed><time>2019-05-26T12:50:50Z</time><pdop>6.068</pdop><geoidheight>0.00</geoidheight><course>113.4</course><type>1</type></trkpt>
      <trkpt lat="39.19981289" lon="-6.10796613"><ele>614</ele><speed>6.92</speed><time>2019-05-26T12:50:52Z</time><pdop>6.068</pdop><geoidheight>0.00</geoidheight><course>101.3</course><type>1</type></trkpt>
      <trkpt lat="39.19981623" lon="-6.10780633"><ele>604</ele><speed>7.03</speed><time>2019-05-26T12:50:54Z</time><pdop>6.068</pdop><geoidheight>0.00</geoidheight><course>76.6</course><type>1</type></trkpt>
      <trkpt lat="39.19983333" lon="-6.10766175"><ele>596</ele><speed>6.02</speed><time>2019-05-26T12:50:56Z</time><pdop>6.068</pdop><geoidheight>0.00</geoidheight><course>80.5</course><type>1</type></trkpt>
      <trkpt lat="39.19986301" lon="-6.10747244"><ele>626</ele><speed>5.46</speed><time>2019-05-26T12:50:59Z</time><pdop>7.585</pdop><geoidheight>0.00</geoidheight><course>77.1</course><type>1</type></trkpt>
      <trkpt lat="39.19991522" lon="-6.10728137"><ele>585</ele><speed>6.08</speed><time>2019-05-26T12:51:02Z</time><pdop>6.068</pdop><geoidheight>0.00</geoidheight><course>74.6</course><type>1</type></trkpt>
      <trkpt lat="39.1999646" lon="-6.10713425"><ele>571</ele><speed>7.10</speed><time>2019-05-26T12:51:04Z</time><pdop>4.5509996</pdop><geoidheight>0.00</geoidheight><course>67.9</course><type>1</type></trkpt>
      <trkpt lat="39.20000467" lon="-6.10699772"><ele>563</ele><speed>6.11</speed><time>2019-05-26T12:51:06Z</time><pdop>4.5509996</pdop><geoidheight>0.00</geoidheight><course>73.6</course><type>1</type></trkpt>
      <trkpt lat="39.20002363" lon="-6.10685395"><ele>556</ele><speed>6.10</speed><time>2019-05-26T12:51:08Z</time><pdop>4.5509996</pdop><geoidheight>0.00</geoidheight><course>80.9</course><type>1</type></trkpt>
      <trkpt lat="39.20004507" lon="-6.1067085"><ele>550</ele><speed>6.67</speed><time>2019-05-26T12:51:10Z</time><pdop>4.5509996</pdop><geoidheight>0.00</geoidheight><course>76.0</course><type>1</type></trkpt>
      <trkpt lat="39.20008017" lon="-6.10655468"><ele>547</ele><speed>6.66</speed><time>2019-05-26T12:51:12Z</time><pdop>4.5509996</pdop><geoidheight>0.00</geoidheight><course>74.5</course><type>1</type></trkpt>
      <trkpt lat="39.20010093" lon="-6.10643986"><ele>546</ele><speed>4.54</speed><time>2019-05-26T12:51:14Z</time><pdop>4.5509996</pdop><geoidheight>0.00</geoidheight><course>69.4</course><type>1</type></trkpt>
      <trkpt lat="39.20014689" lon="-6.10633218"><ele>544</ele><speed>6.61</speed><time>2019-05-26T12:51:16Z</time><pdop>4.5509996</pdop><geoidheight>0.00</geoidheight><course>57.8</course><type>1</type></trkpt>
      <trkpt lat="39.2001968" lon="-6.10617522"><ele>543</ele><speed>6.48</speed><time>2019-05-26T12:51:18Z</time><pdop>4.5509996</pdop><geoidheight>0.00</geoidheight><course>84.3</course><type>1</type></trkpt>
      <trkpt lat="39.20017747" lon="-6.10604968"><ele>543</ele><speed>4.39</speed><time>2019-05-26T12:51:20Z</time><pdop>4.5509996</pdop><geoidheight>0.00</geoidheight><course>110.6</course><type>1</type></trkpt>
      <trkpt lat="39.20016671" lon="-6.10592783"><ele>541</ele><speed>5.56</speed><time>2019-05-26T12:51:22Z</time><pdop>4.5509996</pdop><geoidheight>0.00</geoidheight><course>92.5</course><type>1</type></trkpt>
      <trkpt lat="39.20012402" lon="-6.10577294"><ele>537</ele><speed>7.57</speed><time>2019-05-26T12:51:24Z</time><pdop>4.5509996</pdop><geoidheight>0.00</geoidheight><course>114.5</course><type>1</type></trkpt>
      <trkpt lat="39.20005169" lon="-6.10563406"><ele>535</ele><speed>6.49</speed><time>2019-05-26T12:51:26Z</time><pdop>4.5509996</pdop><geoidheight>0.00</geoidheight><course>131.0</course><type>1</type></trkpt>
      <trkpt lat="39.20001857" lon="-6.10551899"><ele>530</ele><speed>5.60</speed><time>2019-05-26T12:51:28Z</time><pdop>6.068</pdop><geoidheight>0.00</geoidheight><course>95.9</course><type>1</type></trkpt>
      <trkpt lat="39.20003895" lon="-6.10539485"><ele>528</ele><speed>5.80</speed><time>2019-05-26T12:51:30Z</time><pdop>4.5509996</pdop><geoidheight>0.00</geoidheight><course>78.1</course><type>1</type></trkpt>
      <trkpt lat="39.20003848" lon="-6.10527975"><ele>526</ele><speed>4.15</speed><time>2019-05-26T12:51:32Z</time><pdop>4.5509996</pdop><geoidheight>0.00</geoidheight><course>94.5</course><type>1</type></trkpt>
      <trkpt lat="39.20004904" lon="-6.10517127"><ele>523</ele><speed>5.50</speed><time>2019-05-26T12:51:34Z</time><pdop>4.5509996</pdop><geoidheight>0.00</geoidheight><course>79.0</course><type>1</type></trkpt>
      <trkpt lat="39.20008894" lon="-6.10502387"><ele>518</ele><speed>6.49</speed><time>2019-05-26T12:51:36Z</time><pdop>4.5509996</pdop><geoidheight>0.00</geoidheight><course>63.3</course><type>1</type></trkpt>
      <trkpt lat="39.20013515" lon="-6.10491126"><ele>515</ele><speed>4.77</speed><time>2019-05-26T12:51:38Z</time><pdop>4.5509996</pdop><geoidheight>0.00</geoidheight><course>61.4</course><type>1</type></trkpt>
      <trkpt lat="39.20017714" lon="-6.1048358"><ele>512</ele><speed>3.09</speed><time>2019-05-26T12:51:40Z</time><pdop>4.5509996</pdop><geoidheight>0.00</geoidheight><course>39.7</course><type>1</type></trkpt>
    </trkseg>
  </trk>
</gpx>